Time;durP1;ratioP1;P1;durP2;ratioP2;P2;SDS_P1;SDS_P2;PMS_P1;PMS_P2;Temp;Humidity;BMP_temperature;BMP_pressure;BME280_temperature;BME280_humidity;BME280_pressure;Samples;Min_cycle;Max_cycle;Signal;HPM_P1;HPM_P2
2021/10/10 00:00:31;;;;;;;;;33.75;30.75;;;;;12.74;65.15;101858.38;5038486;28;45299;-61
2021/10/10 00:02:56;;;;;;;;;35.75;30.25;;;;;12.75;65.50;101860.06;5056761;28;45444;-61
2021/10/10 00:05:21;;;;;;;;;35.25;30.00;;;;;12.72;65.16;101850.59;5037701;28;65678;-61
2021/10/10 00:07:47;;;;;;;;;34.00;30.25;;;;;12.71;65.51;101859.47;5056324;28;45646;-61
2021/10/10 00:10:12;;;;;;;;;39.25;31.50;;;;;12.69;65.30;101858.75;5056199;28;45411;-61
2021/10/10 00:12:38;;;;;;;;;37.50;30.75;;;;;12.66;65.06;101858.16;5021882;28;45367;-61
2021/10/10 00:15:05;;;;;;;;;37.50;28.75;;;;;12.62;64.89;101865.44;5056351;28;45351;-61
2021/10/10 00:17:31;;;;;;;;;34.50;28.25;;;;;12.58;65.03;101851.66;5054640;28;49643;-61
2021/10/10 00:19:56;;;;;;;;;33.50;29.25;;;;;12.56;65.09;101856.22;5037196;28;67235;-61
2021/10/10 00:22:22;;;;;;;;;29.75;28.00;;;;;12.54;65.22;101849.34;5055185;28;66309;-61
2021/10/10 00:24:47;;;;;;;;;33.00;28.75;;;;;12.51;65.83;101853.09;5056261;28;45266;-61
2021/10/10 00:27:12;;;;;;;;;35.25;30.75;;;;;12.52;65.49;101852.13;5055685;28;54194;-61
2021/10/10 00:29:38;;;;;;;;;33.00;26.00;;;;;12.51;65.82;101854.88;5055386;28;66218;-61
2021/10/10 00:32:03;;;;;;;;;31.50;28.50;;;;;12.51;65.49;101860.13;5056098;28;45340;-61
2021/10/10 00:34:29;;;;;;;;;31.25;25.00;;;;;12.49;65.64;101856.78;5056180;28;45487;-61
2021/10/10 00:36:54;;;;;;;;;32.75;28.75;;;;;12.47;65.66;101855.09;5055796;28;46120;-60
2021/10/10 00:39:19;;;;;;;;;33.00;29.00;;;;;12.46;65.63;101863.13;5055159;28;64489;-61
2021/10/10 00:41:45;;;;;;;;;31.25;28.00;;;;;12.43;65.18;101860.72;5037524;28;57821;-61
2021/10/10 00:44:10;;;;;;;;;33.50;28.50;;;;;12.38;65.73;101858.44;5055339;28;64721;-61
2021/10/10 00:46:36;;;;;;;;;29.25;27.75;;;;;12.32;65.50;101859.72;5037917;28;46281;-61
2021/10/10 00:49:02;;;;;;;;;31.25;27.50;;;;;12.29;65.98;101859.97;5055832;28;45292;-60
2021/10/10 00:51:27;;;;;;;;;34.00;28.25;;;;;12.27;65.71;101851.31;5055901;28;45380;-61
2021/10/10 00:53:53;;;;;;;;;35.00;31.00;;;;;12.23;65.94;101855.13;5020437;28;68775;-61
2021/10/10 00:56:18;;;;;;;;;31.00;28.75;;;;;12.20;65.95;101860.63;5020981;28;46539;-61
2021/10/10 00:58:43;;;;;;;;;32.50;30.75;;;;;12.18;66.90;101854.66;5040526;28;57709;-61
2021/10/10 01:01:09;;;;;;;;;33.00;26.75;;;;;12.16;66.35;101853.94;5023909;28;64041;-61
2021/10/10 01:03:34;;;;;;;;;35.25;30.00;;;;;12.14;66.13;101861.13;5058598;28;63903;-60
2021/10/10 01:06:00;;;;;;;;;34.00;29.75;;;;;12.13;66.34;101849.72;5058933;28;45248;-61
2021/10/10 01:08:25;;;;;;;;;39.75;31.00;;;;;12.14;66.75;101850.59;5059069;28;45422;-61
2021/10/10 01:10:51;;;;;;;;;40.00;32.00;;;;;12.14;66.67;101850.59;5024556;28;45493;-60
2021/10/10 01:13:17;;;;;;;;;32.00;29.50;;;;;12.14;66.32;101861.94;5059091;28;45523;-60
2021/10/10 01:15:42;;;;;;;;;31.00;26.75;;;;;12.14;66.73;101861.13;5040973;28;45519;-61
2021/10/10 01:18:08;;;;;;;;;39.25;30.25;;;;;12.12;66.70;101857.75;5040379;28;67203;-61
2021/10/10 01:20:46;;;;;;;;;33.75;29.75;;;;;12.09;66.38;101842.19;5058169;28;67682;-60
2021/10/10 01:23:12;;;;;;;;;36.25;31.50;;;;;12.07;66.81;101849.34;5025490;28;45303;-61
2021/10/10 01:25:37;;;;;;;;;29.50;26.25;;;;;12.05;66.97;101851.25;5057834;28;74208;-61
2021/10/10 01:28:03;;;;;;;;;35.00;32.50;;;;;12.01;66.64;101848.84;5058199;28;61518;-60
2021/10/10 01:30:28;;;;;;;;;34.00;30.00;;;;;12.02;66.50;101844.41;5041073;28;45637;-61
2021/10/10 01:32:56;;;;;;;;;31.75;29.00;;;;;11.98;66.96;101846.41;5057999;28;67435;-61
2021/10/10 01:35:21;;;;;;;;;32.50;30.25;;;;;11.97;66.77;101849.13;5058705;28;46163;-61
2021/10/10 01:37:47;;;;;;;;;34.00;31.00;;;;;11.92;67.08;101841.59;5058498;28;45228;-61
2021/10/10 01:40:12;;;;;;;;;35.50;31.00;;;;;11.88;66.94;101842.75;5057879;28;66587;-60
2021/10/10 01:42:38;;;;;;;;;39.50;31.75;;;;;11.85;66.92;101837.72;5074217;28;45476;-61
2021/10/10 01:45:05;;;;;;;;;32.00;26.25;;;;;11.82;67.76;101838.78;5057616;28;69579;-60
2021/10/10 01:47:30;;;;;;;;;35.75;30.75;;;;;11.82;67.32;101840.56;5023923;28;45954;-61
2021/10/10 01:49:55;;;;;;;;;31.50;27.75;;;;;11.81;67.00;101842.38;5057795;28;60908;-61
2021/10/10 01:52:21;;;;;;;;;37.00;30.75;;;;;11.81;66.75;101838.91;5057770;28;62926;-61
2021/10/10 01:54:46;;;;;;;;;36.00;30.75;;;;;11.80;67.24;101832.81;5058531;28;45336;-60
2021/10/10 01:57:11;;;;;;;;;30.75;29.00;;;;;11.78;67.20;101832.06;5057532;28;67818;-60
2021/10/10 01:59:37;;;;;;;;;35.00;31.50;;;;;11.78;67.39;101836.47;5073105;28;63777;-61
2021/10/10 02:02:02;;;;;;;;;36.50;31.00;;;;;11.75;67.00;101829.66;5057936;28;53884;-61
2021/10/10 02:04:28;;;;;;;;;34.00;30.00;;;;;11.73;67.38;101823.66;5057451;28;67615;-61
2021/10/10 02:06:53;;;;;;;;;33.25;29.50;;;;;11.70;67.36;101826.53;5058268;28;45290;-61
2021/10/10 02:09:18;;;;;;;;;33.50;31.00;;;;;11.68;67.25;101818.72;5058322;28;45220;-60
2021/10/10 02:11:44;;;;;;;;;36.50;30.75;;;;;11.64;67.32;101822.56;5057425;28;57922;-61
2021/10/10 02:14:09;;;;;;;;;33.25;31.25;;;;;11.62;66.74;101813.91;5057266;28;69960;-61
2021/10/10 02:16:35;;;;;;;;;30.50;28.50;;;;;11.63;66.85;101822.66;5057666;28;59807;-61
2021/10/10 02:19:00;;;;;;;;;36.75;31.75;;;;;11.61;66.87;101822.78;5057252;28;67209;-61
2021/10/10 02:21:25;;;;;;;;;37.25;31.00;;;;;11.57;66.91;101827.41;5057183;28;64258;-60
2021/10/10 02:23:51;;;;;;;;;34.50;27.75;;;;;11.54;67.22;101826.78;5056823;28;68401;-61
2021/10/10 02:26:16;;;;;;;;;34.50;30.00;;;;;11.52;66.95;101820.81;5057820;28;45363;-60
2021/10/10 02:28:41;;;;;;;;;36.50;30.00;;;;;11.48;66.90;101819.34;5057992;28;45355;-61
2021/10/10 02:31:07;;;;;;;;;35.00;29.75;;;;;11.48;67.13;101819.34;5057744;28;45364;-61
2021/10/10 02:33:32;;;;;;;;;36.25;27.25;;;;;11.46;66.46;101816.78;5039470;28;46365;-60
2021/10/10 02:35:58;;;;;;;;;31.00;27.00;;;;;11.44;66.76;101821.31;5057475;28;52486;-60
2021/10/10 02:38:23;;;;;;;;;37.00;31.25;;;;;11.41;66.57;101822.41;5057047;28;65056;-61
2021/10/10 02:40:48;;;;;;;;;35.75;33.00;;;;;11.41;66.23;101816.28;5057172;28;61581;-61
2021/10/10 02:43:14;;;;;;;;;33.75;29.75;;;;;11.39;66.59;101819.03;5057597;28;45332;-60
2021/10/10 02:45:39;;;;;;;;;32.50;29.00;;;;;11.39;66.24;101823.47;5056894;28;58239;-61
2021/10/10 02:48:05;;;;;;;;;33.75;29.00;;;;;11.37;65.87;101810.41;5057061;28;57360;-61
2021/10/10 02:50:31;;;;;;;;;32.50;29.25;;;;;11.36;66.60;101819.25;5039669;28;45493;-60
2021/10/10 02:52:56;;;;;;;;;35.25;31.25;;;;;11.33;66.01;101823.91;5057514;28;46095;-61
2021/10/10 02:55:22;;;;;;;;;38.00;31.25;;;;;11.30;66.37;101822.31;5057347;28;45345;-60
2021/10/10 02:57:47;;;;;;;;;36.00;31.25;;;;;11.30;66.17;101819.69;5057593;28;45407;-60
2021/10/10 03:00:13;;;;;;;;;40.50;33.25;;;;;11.28;66.29;101822.44;5056490;28;69190;-61
2021/10/10 03:02:38;;;;;;;;;32.00;31.25;;;;;11.28;66.27;101821.59;5056262;28;45915;-60
2021/10/10 03:05:04;;;;;;;;;39.75;32.25;;;;;11.25;66.34;101821.81;5056625;28;65308;-60
2021/10/10 03:07:29;;;;;;;;;33.50;30.00;;;;;11.21;66.71;101828.22;5039519;28;45348;-61
2021/10/10 03:09:55;;;;;;;;;38.25;32.25;;;;;11.17;67.16;101821.50;5057446;28;45221;-61
2021/10/10 03:12:20;;;;;;;;;33.00;28.00;;;;;11.14;67.14;101830.47;5056500;28;61992;-61
2021/10/10 03:14:45;;;;;;;;;39.25;33.00;;;;;11.13;67.86;101826.97;5056553;28;58119;-61
2021/10/10 03:17:11;;;;;;;;;41.25;31.25;;;;;11.12;67.82;101821.84;5057301;28;45251;-60
2021/10/10 03:19:36;;;;;;;;;33.50;30.25;;;;;11.12;67.83;101827.97;5055896;28;59041;-60
2021/10/10 03:22:02;;;;;;;;;38.75;31.25;;;;;11.15;67.98;101824.25;5056323;28;67334;-61
2021/10/10 03:24:27;;;;;;;;;36.50;31.50;;;;;11.13;67.91;101823.53;5056564;28;45252;-60
2021/10/10 03:26:52;;;;;;;;;39.25;33.50;;;;;11.13;68.26;101824.34;5055861;28;69310;-61
2021/10/10 03:29:18;;;;;;;;;37.00;32.00;;;;;11.12;68.10;101822.69;5056956;28;47312;-60
2021/10/10 03:31:43;;;;;;;;;42.75;33.25;;;;;11.11;67.97;101820.16;5055979;28;67622;-61
2021/10/10 03:34:08;;;;;;;;;38.75;34.50;;;;;11.10;67.92;101814.06;5038138;28;64279;-60
2021/10/10 03:36:34;;;;;;;;;36.75;32.00;;;;;11.12;67.96;101812.16;5037996;28;62789;-61
2021/10/10 03:38:59;;;;;;;;;37.50;31.00;;;;;11.12;68.13;101814.81;5056087;28;61238;-61
2021/10/10 03:41:24;;;;;;;;;39.00;33.75;;;;;11.12;67.72;101819.22;5055727;28;70065;-61
2021/10/10 03:43:50;;;;;;;;;37.25;33.00;;;;;11.10;68.00;101819.34;5055921;28;65062;-60
2021/10/10 03:46:15;;;;;;;;;39.25;33.00;;;;;11.08;67.76;101815.13;5056165;28;59010;-60
2021/10/10 03:48:41;;;;;;;;;42.00;32.00;;;;;11.04;67.71;101822.38;5056934;28;45436;-61
2021/10/10 03:51:06;;;;;;;;;39.50;32.00;;;;;11.02;67.98;101816.41;5055734;28;61755;-60
2021/10/10 03:54:54;;;;;;;;;36.75;30.50;;;;;10.99;67.61;101819.25;5037529;28;70321;-60
2021/10/10 03:56:17;;;;;;;;;36.50;28.50;;;;;10.97;67.65;101823.75;5037670;28;45578;-61
2021/10/10 03:58:43;;;;;;;;;33.75;27.25;;;;;10.94;67.93;101818.72;5038729;28;45406;-60
2021/10/10 04:01:08;;;;;;;;;36.50;32.00;;;;;10.90;68.01;101822.50;5056349;28;46106;-60
2021/10/10 04:03:33;;;;;;;;;34.75;31.50;;;;;10.88;67.99;101824.41;5056380;28;45337;-60
2021/10/10 04:06:01;;;;;;;;;34.25;31.00;;;;;10.84;68.27;101827.22;5056536;28;45320;-61
2021/10/10 04:08:26;;;;;;;;;34.75;31.25;;;;;10.82;68.04;101830.94;5056154;28;45229;-60
2021/10/10 04:10:52;;;;;;;;;37.00;33.00;;;;;10.81;68.03;101835.34;5056037;28;46303;-61
2021/10/10 04:13:17;;;;;;;;;35.50;32.00;;;;;10.80;68.22;101838.06;5055467;28;66825;-60
2021/10/10 04:15:43;;;;;;;;;37.50;32.50;;;;;10.79;68.41;101837.22;5021983;28;45293;-61
2021/10/10 04:18:09;;;;;;;;;40.50;32.00;;;;;10.79;68.39;101831.97;5055230;28;68650;-61
2021/10/10 04:20:34;;;;;;;;;34.50;28.75;;;;;10.77;68.45;101835.66;5056168;28;46066;-60
2021/10/10 04:23:00;;;;;;;;;37.00;33.00;;;;;10.78;68.53;101827.66;5055854;28;45350;-61
2021/10/10 04:25:25;;;;;;;;;37.00;29.75;;;;;10.81;68.38;101829.25;5055374;28;66216;-61
2021/10/10 04:27:51;;;;;;;;;35.00;32.00;;;;;10.81;68.26;101834.50;5056339;28;45497;-61
2021/10/10 04:30:17;;;;;;;;;32.75;30.50;;;;;10.80;68.21;101833.66;5037924;28;46168;-61
2021/10/10 04:32:42;;;;;;;;;34.00;31.25;;;;;10.80;67.95;101832.81;5039122;28;55067;-60
2021/10/10 04:35:08;;;;;;;;;36.50;32.25;;;;;10.78;68.47;101829.47;5059733;28;45443;-61
2021/10/10 04:37:34;;;;;;;;;33.50;30.50;;;;;10.76;68.45;101832.19;5059674;28;45348;-61
2021/10/10 04:39:59;;;;;;;;;39.00;30.00;;;;;10.75;68.30;101830.50;5075052;28;48131;-60
2021/10/10 04:42:24;;;;;;;;;35.25;32.25;;;;;10.77;68.36;101835.66;5040787;28;64972;-61
2021/10/10 04:44:50;;;;;;;;;43.25;34.00;;;;;10.78;68.14;101838.16;5058718;28;61505;-61
2021/10/10 04:47:15;;;;;;;;;43.00;35.00;;;;;10.77;67.98;101843.53;5040752;28;63422;-60
2021/10/10 04:49:40;;;;;;;;;37.75;31.50;;;;;10.75;67.38;101843.63;5059437;28;45447;-61
2021/10/10 04:52:06;;;;;;;;;35.25;32.50;;;;;10.72;67.91;101841.22;5058350;28;66224;-61
2021/10/10 04:54:33;;;;;;;;;39.50;33.50;;;;;10.71;67.71;101849.22;5058861;28;55876;-60
2021/10/10 04:56:58;;;;;;;;;35.50;32.25;;;;;10.66;68.19;101847.75;5059330;28;45514;-61
2021/10/10 04:59:23;;;;;;;;;32.50;28.25;;;;;10.65;67.96;101845.19;5040262;28;71055;-60
2021/10/10 05:01:49;;;;;;;;;40.00;32.75;;;;;10.62;68.16;101851.53;5058761;28;45348;-60
2021/10/10 05:04:14;;;;;;;;;36.25;31.50;;;;;10.62;68.26;101845.41;5041260;28;45417;-61
2021/10/10 05:06:40;;;;;;;;;42.25;34.50;;;;;10.61;68.03;101846.34;5040179;28;64500;-60
2021/10/10 05:09:05;;;;;;;;;39.75;33.00;;;;;10.60;68.29;101844.69;5058177;28;70737;-60
2021/10/10 05:11:30;;;;;;;;;42.50;34.00;;;;;10.58;68.08;101851.84;5040517;28;54637;-61
2021/10/10 05:13:56;;;;;;;;;41.25;34.50;;;;;10.59;68.16;101854.34;5058082;28;63917;-60
2021/10/10 05:16:21;;;;;;;;;45.00;36.25;;;;;10.61;68.29;101854.25;5058340;28;62513;-61
2021/10/10 05:18:46;;;;;;;;;39.50;34.00;;;;;10.60;68.29;101853.41;5058145;28;65006;-61
2021/10/10 05:21:12;;;;;;;;;39.00;34.75;;;;;10.61;68.29;101854.25;5057956;28;70047;-60
2021/10/10 05:23:37;;;;;;;;;42.75;35.00;;;;;10.62;68.20;101850.66;5057778;28;67798;-61
2021/10/10 05:26:02;;;;;;;;;47.50;37.00;;;;;10.61;68.39;101854.25;5040015;28;67390;-60
2021/10/10 05:28:28;;;;;;;;;39.50;33.00;;;;;10.60;68.07;101847.34;5058855;28;45299;-61
2021/10/10 05:30:53;;;;;;;;;43.50;35.75;;;;;10.58;68.17;101850.03;5058168;28;57043;-61
2021/10/10 05:33:19;;;;;;;;;38.00;33.75;;;;;10.55;68.43;101842.38;5057978;28;63920;-60
2021/10/10 05:35:45;;;;;;;;;40.00;34.00;;;;;10.53;68.23;101850.38;5040813;28;45529;-61
2021/10/10 05:38:10;;;;;;;;;45.50;35.00;;;;;10.53;68.55;101852.13;5058608;28;45471;-61
2021/10/10 05:40:36;;;;;;;;;43.75;37.25;;;;;10.53;68.40;101855.63;5058508;28;45498;-60
2021/10/10 05:43:01;;;;;;;;;39.75;32.00;;;;;10.49;68.28;101848.88;5058068;28;45363;-60
2021/10/10 05:45:27;;;;;;;;;46.25;37.00;;;;;10.46;68.45;101851.72;5057882;28;58519;-61
2021/10/10 05:47:52;;;;;;;;;43.00;36.25;;;;;10.44;68.18;101848.34;5058357;28;45423;-60
2021/10/10 05:50:17;;;;;;;;;46.75;34.25;;;;;10.42;68.34;101847.63;5057731;28;65919;-61
2021/10/10 05:52:43;;;;;;;;;42.75;35.75;;;;;10.40;68.49;101852.13;5058124;28;56377;-61
2021/10/10 05:55:10;;;;;;;;;35.00;34.00;;;;;10.41;68.24;101847.69;5058557;28;45365;-60
2021/10/10 05:57:45;;;;;;;;;45.50;35.00;;;;;10.42;68.43;101852.00;5058355;28;45490;-60
2021/10/10 06:00:15;;;;;;;;;38.50;34.00;;;;;10.41;67.93;101853.81;5058386;28;45764;-61
2021/10/10 06:02:41;;;;;;;;;41.25;33.50;;;;;10.37;68.28;101857.56;5040429;28;45507;-60
2021/10/10 06:05:07;;;;;;;;;41.00;34.75;;;;;10.36;67.89;101863.75;5040348;28;45351;-61
2021/10/10 06:07:33;;;;;;;;;37.25;34.00;;;;;10.34;67.72;101866.47;5039927;28;53076;-61
2021/10/10 06:09:58;;;;;;;;;38.75;34.00;;;;;10.34;67.71;101870.88;5039910;28;45492;-61
2021/10/10 06:12:23;;;;;;;;;43.50;35.00;;;;;10.33;67.99;101871.84;5058043;28;45640;-60
2021/10/10 06:14:51;;;;;;;;;50.25;38.25;;;;;10.31;67.82;101869.31;5057254;28;67224;-60
2021/10/10 06:17:17;;;;;;;;;49.00;36.50;;;;;10.30;67.94;101875.53;5040316;28;46169;-61
2021/10/10 06:19:44;;;;;;;;;43.75;35.75;;;;;10.30;68.20;101872.03;5057855;28;45904;-61
2021/10/10 06:22:09;;;;;;;;;41.75;34.00;;;;;10.30;68.26;101877.28;5040251;28;45303;-60
2021/10/10 06:24:34;;;;;;;;;37.00;34.00;;;;;10.30;68.30;101872.03;5039134;28;57377;-61
2021/10/10 06:27:00;;;;;;;;;39.75;33.25;;;;;10.30;68.33;101872.91;5057124;28;64041;-60
2021/10/10 06:29:25;;;;;;;;;44.75;35.00;;;;;10.30;68.18;101875.53;5057273;28;60128;-61
2021/10/10 06:31:51;;;;;;;;;42.25;33.50;;;;;10.33;68.30;101877.09;5057777;28;45866;-61
2021/10/10 06:34:16;;;;;;;;;44.50;36.25;;;;;10.33;68.49;101879.72;5057775;28;45390;-61
2021/10/10 06:36:41;;;;;;;;;38.00;33.25;;;;;10.33;68.22;101875.28;5056500;28;69938;-61
2021/10/10 06:39:07;;;;;;;;;47.75;36.25;;;;;10.32;68.34;101885.91;5056798;28;69396;-61
2021/10/10 06:41:32;;;;;;;;;45.25;34.00;;;;;10.32;68.47;101880.66;5057660;28;45324;-61
2021/10/10 06:43:58;;;;;;;;;46.75;37.25;;;;;10.34;68.56;101889.28;5056733;28;64506;-60
2021/10/10 06:46:25;;;;;;;;;41.75;36.00;;;;;10.33;68.77;101888.44;5057233;28;46282;-60
2021/10/10 06:48:50;;;;;;;;;41.25;34.25;;;;;10.36;68.62;101890.84;5039684;28;45355;-60
2021/10/10 06:51:16;;;;;;;;;40.00;35.75;;;;;10.36;68.80;101890.84;5056718;28;60068;-60
2021/10/10 06:53:41;;;;;;;;;43.25;36.25;;;;;10.38;68.84;101890.75;5039373;28;45467;-61
2021/10/10 06:56:06;;;;;;;;;42.25;34.00;;;;;10.40;68.77;101896.78;5037508;28;68253;-60
2021/10/10 06:58:32;;;;;;;;;53.00;37.50;;;;;10.44;68.95;101894.78;5056374;28;62508;-61
2021/10/10 07:00:57;;;;;;;;;42.25;34.25;;;;;10.45;68.96;101902.59;5039076;28;45414;-61
2021/10/10 07:03:23;;;;;;;;;40.50;35.00;;;;;10.47;68.57;101907.72;5057224;28;45278;-61
2021/10/10 07:05:48;;;;;;;;;38.75;34.75;;;;;10.47;68.83;101911.22;5039049;28;45571;-60
2021/10/10 07:08:14;;;;;;;;;40.25;33.50;;;;;10.49;68.65;101904.06;5038045;28;71758;-60
2021/10/10 07:10:39;;;;;;;;;39.25;33.50;;;;;10.50;69.00;101900.50;5021433;28;63071;-61
2021/10/10 07:13:05;;;;;;;;;45.75;37.00;;;;;10.52;68.91;101897.75;5056294;28;58090;-60
2021/10/10 07:15:31;;;;;;;;;37.75;34.00;;;;;10.55;69.09;101894.94;5038629;28;46513;-61
2021/10/10 07:18:00;;;;;;;;;38.75;34.00;;;;;10.61;69.00;101896.28;5038729;28;45800;-61
2021/10/10 07:20:53;;;;;;;;;42.75;36.75;;;;;10.68;69.06;101902.81;5057004;28;45460;-61
2021/10/10 07:24:52;;;;;;;;;43.25;37.25;;;;;10.74;68.76;101902.41;5055472;28;45439;-60
2021/10/10 07:26:02;;;;;;;;;42.25;34.00;;;;;10.79;68.69;101904.75;5036398;28;46019;-61
2021/10/10 07:28:27;;;;;;;;;46.25;37.25;;;;;10.81;68.66;101913.38;5056652;28;45368;-61
2021/10/10 07:30:54;;;;;;;;;38.25;34.25;;;;;10.86;68.54;101910.44;5038125;28;56464;-61
2021/10/10 07:33:20;;;;;;;;;42.50;35.50;;;;;10.87;68.40;101907.69;5056750;28;45540;-60
2021/10/10 07:35:45;;;;;;;;;45.50;37.75;;;;;10.89;68.71;101912.84;5056523;28;46048;-60
2021/10/10 07:38:10;;;;;;;;;43.50;36.50;;;;;10.93;68.83;101912.53;5055653;28;66697;-61
2021/10/10 07:40:36;;;;;;;;;41.00;35.00;;;;;10.96;69.06;101909.69;5056690;28;45327;-61
2021/10/10 07:43:02;;;;;;;;;40.00;34.50;;;;;10.99;68.76;101906.84;5056834;28;45391;-61
2021/10/10 07:45:27;;;;;;;;;45.75;36.25;;;;;11.05;68.78;101902.13;5056395;28;45459;-61
2021/10/10 07:47:55;;;;;;;;;40.25;33.75;;;;;11.08;68.42;101894.03;5056453;28;45347;-61
2021/10/10 07:50:21;;;;;;;;;43.00;36.75;;;;;11.13;68.49;101892.75;5038913;28;45288;-61
2021/10/10 07:52:47;;;;;;;;;48.25;38.00;;;;;11.21;68.44;101902.75;5038596;28;45565;-61
2021/10/10 07:55:12;;;;;;;;;44.00;36.00;;;;;11.30;68.42;101909.16;5056142;28;45971;-61
2021/10/10 07:57:38;;;;;;;;;47.25;34.50;;;;;11.43;68.48;101909.97;5056410;28;45448;-61
2021/10/10 08:00:05;;;;;;;;;39.00;34.00;;;;;11.61;68.03;101920.19;5056632;28;45301;-60
2021/10/10 08:02:31;;;;;;;;;35.25;31.75;;;;;11.83;68.20;101927.38;5037767;28;45375;-61
2021/10/10 08:04:57;;;;;;;;;36.25;30.75;;;;;12.07;66.84;101933.66;5056179;28;45393;-61
2021/10/10 08:07:22;;;;;;;;;32.00;29.50;;;;;12.30;66.52;101930.16;5056094;28;45369;-61
2021/10/10 08:09:48;;;;;;;;;38.75;31.75;;;;;12.57;66.17;101936.13;5037477;28;63002;-61
2021/10/10 08:12:13;;;;;;;;;42.00;35.25;;;;;12.79;65.86;101930.09;5055533;28;65365;-61
2021/10/10 08:14:39;;;;;;;;;47.00;39.00;;;;;13.01;65.06;101936.38;5055546;28;68150;-61
2021/10/10 08:17:04;;;;;;;;;50.25;37.75;;;;;13.19;64.05;101932.31;5055685;28;45359;-61
2021/10/10 08:19:29;;;;;;;;;48.75;37.75;;;;;13.35;63.39;101931.09;5054183;28;58551;-61
2021/10/10 08:21:55;;;;;;;;;47.00;39.00;;;;;13.50;63.19;101934.41;5055210;28;65745;-61
2021/10/10 08:24:22;;;;;;;;;42.00;32.75;;;;;13.67;62.49;101935.72;5055337;28;61910;-61
2021/10/10 08:26:47;;;;;;;;;46.75;36.25;;;;;13.84;62.03;101938.78;5055812;28;45794;-61
2021/10/10 08:29:14;;;;;;;;;44.50;37.75;;;;;14.01;61.62;101943.56;5071698;28;45402;-61
2021/10/10 08:31:39;;;;;;;;;44.25;35.25;;;;;14.19;60.52;101943.03;5055874;28;45491;-61
2021/10/10 08:34:05;;;;;;;;;47.50;36.00;;;;;14.34;60.59;101935.66;5055005;28;71077;-61
2021/10/10 08:36:30;;;;;;;;;45.00;34.75;;;;;14.49;59.91;101937.03;5055511;28;48014;-61
2021/10/10 08:38:55;;;;;;;;;42.00;34.00;;;;;14.61;59.35;101934.31;5056132;28;45695;-61
2021/10/10 08:41:23;;;;;;;;;34.75;28.50;;;;;14.71;59.22;101937.06;5055219;28;60917;-61
2021/10/10 08:43:49;;;;;;;;;41.50;33.50;;;;;14.88;59.11;101933.00;5038268;28;46109;-61
2021/10/10 08:46:21;;;;;;;;;36.75;32.75;;;;;15.09;58.30;101922.38;5037816;28;45320;-61
2021/10/10 08:48:47;;;;;;;;;42.25;33.00;;;;;15.31;57.76;101917.91;5038563;28;45395;-61
2021/10/10 08:51:12;;;;;;;;;34.25;30.00;;;;;15.54;57.60;101914.06;5055208;28;59583;-61
2021/10/10 08:53:38;;;;;;;;;40.75;33.50;;;;;15.77;56.89;101916.50;5054819;28;72611;-61
2021/10/10 08:56:03;;;;;;;;;40.25;33.50;;;;;16.04;56.23;101920.31;5037807;28;45317;-61
2021/10/10 08:58:35;;;;;;;;;39.25;32.50;;;;;16.25;55.66;101924.66;5055583;28;45351;-61
2021/10/10 09:01:12;;;;;;;;;37.25;33.25;;;;;16.44;55.20;101919.34;5023058;28;45423;-61
2021/10/10 09:03:37;;;;;;;;;34.00;30.50;;;;;16.65;54.79;101926.31;5039286;28;45473;-62
2021/10/10 09:06:03;;;;;;;;;38.00;30.25;;;;;16.86;54.16;101931.44;5055200;28;55756;-61
2021/10/10 09:08:28;;;;;;;;;26.75;24.25;;;;;17.08;53.64;101941.88;5054623;28;66435;-61
2021/10/10 09:11:00;;;;;;;;;34.50;30.25;;;;;17.26;52.80;101942.81;5055244;28;45233;-61
2021/10/10 09:13:39;;;;;;;;;29.50;26.75;;;;;17.46;52.45;101940.09;5037076;28;45532;-62
2021/10/10 09:16:06;;;;;;;;;38.25;32.75;;;;;17.55;51.76;101948.97;5020268;28;45823;-62
2021/10/10 09:18:42;;;;;;;;;34.00;31.50;;;;;17.60;51.51;101960.81;5056425;28;45359;-62
2021/10/10 09:21:23;;;;;;;;;29.50;26.25;;;;;17.57;51.04;101963.78;5040682;28;45290;-62
2021/10/10 09:23:50;;;;;;;;;35.75;32.25;;;;;17.54;51.41;101966.72;5058048;28;45444;-62
2021/10/10 09:26:17;;;;;;;;;35.00;31.75;;;;;17.56;51.41;101969.25;5058105;28;45279;-61
2021/10/10 09:28:43;;;;;;;;;34.00;31.00;;;;;17.57;51.29;101965.63;5040378;28;45282;-61
2021/10/10 09:31:08;;;;;;;;;39.50;32.00;;;;;17.56;51.08;101967.41;5058587;28;45298;-62
2021/10/10 09:33:45;;;;;;;;;49.75;39.50;;;;;17.56;50.73;101956.78;5040769;28;45398;-62
2021/10/10 09:36:25;;;;;;;;;35.50;31.50;;;;;17.55;50.72;101944.47;5058577;28;45319;-62
2021/10/10 09:44:18;;;;;;;;;29.75;25.25;;;;;17.85;50.50;101939.00;5058297;28;45408;-61
2021/10/10 09:46:45;;;;;;;;;31.00;29.25;;;;;17.91;49.91;101941.91;5058423;28;45403;-62
2021/10/10 09:49:20;;;;;;;;;35.25;30.00;;;;;17.96;49.85;101946.78;5058680;28;45384;-61
2021/10/10 09:51:45;;;;;;;;;44.25;33.75;;;;;18.00;49.09;101952.69;5058269;28;45231;-61
2021/10/10 09:54:11;;;;;;;;;33.00;28.50;;;;;18.03;49.61;101952.34;5057683;28;57711;-61
2021/10/10 09:56:36;;;;;;;;;35.00;30.50;;;;;18.14;49.62;101946.81;5057597;28;63390;-61
2021/10/10 09:59:02;;;;;;;;;28.75;26.50;;;;;18.26;49.59;101950.09;5057428;28;51392;-62
2021/10/10 10:01:30;;;;;;;;;43.50;36.00;;;;;18.45;48.98;101940.25;5058084;28;50805;-62
2021/10/10 10:03:56;;;;;;;;;30.75;28.25;;;;;18.62;47.97;101943.88;5058053;28;47129;-62
2021/10/10 10:06:22;;;;;;;;;27.00;26.00;;;;;18.71;47.17;101950.94;5058156;28;45992;-61
2021/10/10 10:08:47;;;;;;;;;29.25;26.50;;;;;18.75;46.74;101951.50;5058204;28;45502;-61
2021/10/10 10:11:12;;;;;;;;;27.75;25.50;;;;;18.81;46.94;101961.53;5057489;28;60182;-62
2021/10/10 10:13:38;;;;;;;;;29.75;25.00;;;;;18.85;46.76;101960.19;5056574;28;73626;-62
2021/10/10 10:16:03;;;;;;;;;25.00;24.00;;;;;18.92;46.33;101963.91;5022092;28;61758;-62
2021/10/10 10:18:29;;;;;;;;;28.00;24.25;;;;;19.01;46.67;101962.19;5039794;28;45274;-62
2021/10/10 10:20:55;;;;;;;;;27.75;26.00;;;;;19.12;46.28;101961.88;5039071;28;65907;-62
2021/10/10 10:23:20;;;;;;;;;31.25;28.50;;;;;19.23;45.52;101960.81;5023042;28;46083;-62
2021/10/10 10:25:46;;;;;;;;;26.75;26.50;;;;;19.26;45.27;101963.16;5021990;28;71352;-62
2021/10/10 10:28:11;;;;;;;;;37.75;32.25;;;;;19.30;45.37;101957.50;5038846;28;60718;-61
2021/10/10 10:30:36;;;;;;;;;26.75;25.75;;;;;19.37;45.58;101959.38;5020772;28;67361;-62
2021/10/10 10:33:02;;;;;;;;;30.75;25.25;;;;;19.47;45.58;101955.75;5039114;28;45422;-61
2021/10/10 10:35:29;;;;;;;;;27.50;23.00;;;;;19.57;45.65;101956.47;5038763;28;63594;-62
2021/10/10 10:37:56;;;;;;;;;26.00;21.75;;;;;19.71;45.51;101963.00;5040176;28;45379;-62
2021/10/10 10:40:27;;;;;;;;;29.75;22.75;;;;;19.91;44.72;101963.59;5057693;28;45338;-61
2021/10/10 10:42:53;;;;;;;;;27.75;25.00;;;;;20.13;44.31;101962.13;5057293;28;46667;-61
2021/10/10 10:45:21;;;;;;;;;26.25;22.75;;;;;20.32;44.26;101965.47;5057148;28;46042;-62
2021/10/10 10:47:48;;;;;;;;;27.00;24.00;;;;;20.48;43.94;101966.47;5057599;28;45460;-62
2021/10/10 10:50:21;;;;;;;;;28.75;26.25;;;;;20.56;43.44;101971.81;5039857;28;45538;-62
2021/10/10 10:52:58;;;;;;;;;27.50;24.00;;;;;20.65;43.11;101964.66;5057194;28;45527;-62
2021/10/10 10:55:27;;;;;;;;;23.00;20.50;;;;;20.77;43.07;101963.31;5057456;28;45371;-62
2021/10/10 10:57:53;;;;;;;;;22.25;20.50;;;;;20.86;42.36;101966.81;5039024;28;45274;-62
2021/10/10 11:00:32;;;;;;;;;23.50;20.25;;;;;21.00;42.62;101968.78;5057379;28;45488;-62
2021/10/10 11:03:07;;;;;;;;;20.00;19.50;;;;;21.13;42.10;101965.59;5057019;28;45458;-62
2021/10/10 11:05:54;;;;;;;;;27.25;25.25;;;;;21.22;41.69;101966.41;5057336;28;45339;-62
2021/10/10 11:08:22;;;;;;;;;22.25;20.50;;;;;21.23;41.58;101952.03;5040808;28;45383;-62
2021/10/10 11:11:17;;;;;;;;;29.75;23.25;;;;;21.23;40.74;101961.88;5057160;28;45543;-62